Pagina principale
METAR-TAF:

METAR-TAF

Aeroporti :

Aerodromo Hinterstoisser-Zeltweg

Zeltweg, Austria

latitudine: 47-12N, longitudine: 014-45E, altezza: 677 m

Osservazione

Il bollettino è stato emesso 27 minuti fa, alle 18:50 UTC
Vento 2 kt da direzioni variabili
Temperature -7°C
Umidità 93%
Pressione 1015 hPa

METAR: LOXZ 191850Z VRB02KT 10KM FEW040SC BKN120AC M07/M08 Q1015

Ora: 20:17 (19:17 UTC)

Previsione

Il bollettino è stato emesso 8 ore e 2 minuti fa, alle 11:15 UTC
Previsione valida dal 19 alle 12 UTC al 19 alle 21 UTC
Vento 3 kt da direzioni variabili
Visibilità 10 km o più
Nubi sparse ad un'altezza di 3000 ft
Nuvoloso ad un'altezza di 4500 ft
Temporaneamente
dal 19 alle 12 UTC al 19 alle 21 UTC
neve debole

TAF: LOXZ 191115Z 1912/1921 VRB03KT 9999 SCT030 BKN045 TEMPO 1912/1921 -SN

Osservazioni e previsioni meteorologiche di più di 4000 aeroporti (messaggi METAR e TAF).

Le stazioni disponibili sono rappresentate dai dischi gialli e rossi sulla carta.

Puntare il mouse per vedere il nome della stazione.

Clicca sopra per visualizzare le osservazioni e previsioni meteorologiche.

Per cambiare la mappa : fare clic sui pulsanti verdi con una croce nera per ingrandire, il pulsante verde con un trattino per diminuire, o sulla freccia verde per le mappe adiacenti.


METAR-TAF: